Accueil
METAR-TAF:

METAR-TAF

Aéroports :

Aéroport de Haugesund

Haugesund, Norvège

latitude: 59-21N, longitude: 005-13E, altitude: 2 m

Observation

Le bulletin a été fait il y a 21 minutes, à 14:20 UTC
Vent 11 kt de ouest/nord-ouest
Température 8°C
Humidité 61%
Pression 1011 hPa
Visibilité 10 km ou plus
Quelques nuages à une hauteur de 1500 ft

METAR: ENHD 171420Z 30011KT 9999 FEW015 08/01 Q1011

Heure: 16:41 (14:41 UTC)

Prévision

Le bulletin a été fait il y a 3 heures et 41 minutes, à 11:00 UTC
Prévision valable du 17 à 12 UTC au 17 à 20 UTC
Vent 15 kt de nord/nord-ouest
Visibilité 10 km ou plus
Quelques nuages à une hauteur de 2500 ft
Evoluant progressivement
du 17 à 18 UTC au 17 à 20 UTC
Vent 5 kt de nord

TAF: ENHD 171100Z 1712/1720 34015KT 9999 FEW025 BECMG 1718/1720 35005KT

Observations et prévisions météorologiques de plus de 4000 aéroports (messages METAR et TAF).

Les stations disponibles sont représentées par des disques jaunes et rouges sur la carte.

Passer la souris dessus pour voir le nom de la station.

Cliquer dessus pour voir les observations et prévisions météorologiques.

Pour changer de carte: cliquez sur les boutons verts avec une croix noire pour zoomer, sur le bouton vert avec un tiret pour effectuer un zoom arrière, ou sur les flèches vertes pour les cartes adjacentes.


METAR-TAF: